sensor_id;sensor_type;location;lat;lon;timestamp;P1;durP1;ratioP1;P2;durP2;ratioP2
84709;SDS011;75589;42.648;23.274;2024-03-07T00:02:40;1.15;;;1.10;;
84709;SDS011;75589;42.648;23.274;2024-03-07T00:05:09;1.60;;;1.52;;
84709;SDS011;75589;42.648;23.274;2024-03-07T00:10:02;0.52;;;0.52;;
84709;SDS011;75589;42.648;23.274;2024-03-07T00:12:28;36.67;;;15.95;;
84709;SDS011;75589;42.648;23.274;2024-03-07T00:14:55;43.75;;;17.40;;
84709;SDS011;75589;42.648;23.274;2024-03-07T00:17:21;4.75;;;2.50;;
84709;SDS011;75589;42.648;23.274;2024-03-07T00:19:48;0.10;;;0.10;;
84709;SDS011;75589;42.648;23.274;2024-03-07T00:22:13;0.68;;;0.68;;
84709;SDS011;75589;42.648;23.274;2024-03-07T00:24:39;2.05;;;1.95;;
84709;SDS011;75589;42.648;23.274;2024-03-07T00:27:05;2.55;;;2.05;;
84709;SDS011;75589;42.648;23.274;2024-03-07T00:29:32;0.65;;;0.40;;
84709;SDS011;75589;42.648;23.274;2024-03-07T00:32:00;36.05;;;16.88;;
84709;SDS011;75589;42.648;23.274;2024-03-07T00:34:26;42.13;;;16.55;;
84709;SDS011;75589;42.648;23.274;2024-03-07T00:36:52;38.72;;;17.08;;
84709;SDS011;75589;42.648;23.274;2024-03-07T00:39:18;34.38;;;16.05;;
84709;SDS011;75589;42.648;23.274;2024-03-07T00:41:44;36.97;;;16.60;;
84709;SDS011;75589;42.648;23.274;2024-03-07T00:44:10;36.53;;;15.50;;
84709;SDS011;75589;42.648;23.274;2024-03-07T00:46:36;34.78;;;13.65;;
84709;SDS011;75589;42.648;23.274;2024-03-07T00:49:02;36.70;;;15.73;;
84709;SDS011;75589;42.648;23.274;2024-03-07T00:51:28;30.45;;;13.73;;
84709;SDS011;75589;42.648;23.274;2024-03-07T00:53:54;28.95;;;13.82;;
84709;SDS011;75589;42.648;23.274;2024-03-07T00:56:20;3.03;;;2.22;;
84709;SDS011;75589;42.648;23.274;2024-03-07T00:58:47;0.17;;;0.17;;
84709;SDS011;75589;42.648;23.274;2024-03-07T01:01:13;0.25;;;0.25;;
84709;SDS011;75589;42.648;23.274;2024-03-07T01:03:40;0.10;;;0.10;;
84709;SDS011;75589;42.648;23.274;2024-03-07T01:06:06;0.03;;;0.03;;
84709;SDS011;75589;42.648;23.274;2024-03-07T01:08:32;29.27;;;12.10;;
84709;SDS011;75589;42.648;23.274;2024-03-07T01:10:58;28.67;;;12.68;;
84709;SDS011;75589;42.648;23.274;2024-03-07T01:13:23;28.67;;;12.57;;
84709;SDS011;75589;42.648;23.274;2024-03-07T01:15:49;23.05;;;12.10;;
84709;SDS011;75589;42.648;23.274;2024-03-07T01:18:15;26.23;;;11.27;;
84709;SDS011;75589;42.648;23.274;2024-03-07T01:20:42;25.90;;;11.48;;
84709;SDS011;75589;42.648;23.274;2024-03-07T01:23:07;22.83;;;11.32;;
84709;SDS011;75589;42.648;23.274;2024-03-07T01:25:33;23.38;;;10.63;;
84709;SDS011;75589;42.648;23.274;2024-03-07T01:27:59;22.67;;;10.98;;
84709;SDS011;75589;42.648;23.274;2024-03-07T01:30:25;26.50;;;11.15;;
84709;SDS011;75589;42.648;23.274;2024-03-07T01:32:53;20.80;;;10.35;;
84709;SDS011;75589;42.648;23.274;2024-03-07T01:35:19;24.40;;;10.80;;
84709;SDS011;75589;42.648;23.274;2024-03-07T01:37:44;26.73;;;11.65;;
84709;SDS011;75589;42.648;23.274;2024-03-07T01:40:10;20.67;;;11.68;;
84709;SDS011;75589;42.648;23.274;2024-03-07T01:42:36;23.08;;;10.82;;
84709;SDS011;75589;42.648;23.274;2024-03-07T01:45:02;26.23;;;12.05;;
84709;SDS011;75589;42.648;23.274;2024-03-07T01:47:28;18.85;;;9.32;;
84709;SDS011;75589;42.648;23.274;2024-03-07T01:49:53;24.48;;;11.18;;
84709;SDS011;75589;42.648;23.274;2024-03-07T01:52:19;22.30;;;10.65;;
84709;SDS011;75589;42.648;23.274;2024-03-07T01:54:47;19.52;;;9.50;;
84709;SDS011;75589;42.648;23.274;2024-03-07T01:57:14;22.20;;;9.63;;
84709;SDS011;75589;42.648;23.274;2024-03-07T01:59:42;22.05;;;9.63;;
84709;SDS011;75589;42.648;23.274;2024-03-07T02:04:34;0.10;;;0.10;;
84709;SDS011;75589;42.648;23.274;2024-03-07T02:06:59;0.10;;;0.10;;
84709;SDS011;75589;42.648;23.274;2024-03-07T02:09:25;0.10;;;0.10;;
84709;SDS011;75589;42.648;23.274;2024-03-07T02:11:51;0.10;;;0.10;;
84709;SDS011;75589;42.648;23.274;2024-03-07T02:14:16;0.03;;;0.03;;
84709;SDS011;75589;42.648;23.274;2024-03-07T02:16:42;9.23;;;4.63;;
84709;SDS011;75589;42.648;23.274;2024-03-07T02:19:07;12.93;;;6.43;;
84709;SDS011;75589;42.648;23.274;2024-03-07T02:21:38;13.52;;;6.05;;
84709;SDS011;75589;42.648;23.274;2024-03-07T02:24:04;17.63;;;6.82;;
84709;SDS011;75589;42.648;23.274;2024-03-07T02:26:29;14.90;;;7.15;;
84709;SDS011;75589;42.648;23.274;2024-03-07T02:28:55;13.70;;;7.05;;
84709;SDS011;75589;42.648;23.274;2024-03-07T02:31:20;15.88;;;6.75;;
84709;SDS011;75589;42.648;23.274;2024-03-07T02:36:18;9.27;;;4.97;;
84709;SDS011;75589;42.648;23.274;2024-03-07T02:38:44;11.98;;;6.53;;
84709;SDS011;75589;42.648;23.274;2024-03-07T02:41:09;17.95;;;6.93;;
84709;SDS011;75589;42.648;23.274;2024-03-07T02:43:34;15.95;;;7.53;;
84709;SDS011;75589;42.648;23.274;2024-03-07T02:46:03;18.98;;;8.32;;
84709;SDS011;75589;42.648;23.274;2024-03-07T02:48:28;22.05;;;8.57;;
84709;SDS011;75589;42.648;23.274;2024-03-07T02:50:55;16.30;;;7.03;;
84709;SDS011;75589;42.648;23.274;2024-03-07T02:53:21;11.82;;;5.45;;
84709;SDS011;75589;42.648;23.274;2024-03-07T02:55:47;10.68;;;5.03;;
84709;SDS011;75589;42.648;23.274;2024-03-07T02:58:12;5.10;;;2.60;;
84709;SDS011;75589;42.648;23.274;2024-03-07T03:00:37;4.18;;;2.65;;
84709;SDS011;75589;42.648;23.274;2024-03-07T03:03:03;6.97;;;2.85;;
84709;SDS011;75589;42.648;23.274;2024-03-07T03:05:29;0.10;;;0.10;;
84709;SDS011;75589;42.648;23.274;2024-03-07T03:07:55;0.17;;;0.17;;
84709;SDS011;75589;42.648;23.274;2024-03-07T03:10:24;0.10;;;0.10;;
84709;SDS011;75589;42.648;23.274;2024-03-07T03:12:58;4.35;;;2.97;;
84709;SDS011;75589;42.648;23.274;2024-03-07T03:15:24;0.10;;;0.10;;
84709;SDS011;75589;42.648;23.274;2024-03-07T03:17:50;8.35;;;3.53;;
84709;SDS011;75589;42.648;23.274;2024-03-07T03:20:17;8.13;;;3.88;;
84709;SDS011;75589;42.648;23.274;2024-03-07T03:22:59;7.15;;;2.50;;
84709;SDS011;75589;42.648;23.274;2024-03-07T03:25:25;4.68;;;2.85;;
84709;SDS011;75589;42.648;23.274;2024-03-07T03:27:54;7.60;;;3.58;;
84709;SDS011;75589;42.648;23.274;2024-03-07T03:30:19;8.55;;;4.22;;
84709;SDS011;75589;42.648;23.274;2024-03-07T03:32:46;10.35;;;4.20;;
84709;SDS011;75589;42.648;23.274;2024-03-07T03:37:39;0.10;;;0.10;;
84709;SDS011;75589;42.648;23.274;2024-03-07T03:40:06;9.35;;;3.80;;
84709;SDS011;75589;42.648;23.274;2024-03-07T03:42:34;8.88;;;3.95;;
84709;SDS011;75589;42.648;23.274;2024-03-07T03:45:03;9.77;;;3.72;;
84709;SDS011;75589;42.648;23.274;2024-03-07T03:47:35;7.43;;;3.65;;
84709;SDS011;75589;42.648;23.274;2024-03-07T03:50:04;6.18;;;3.85;;
84709;SDS011;75589;42.648;23.274;2024-03-07T03:52:31;5.97;;;3.47;;
84709;SDS011;75589;42.648;23.274;2024-03-07T03:54:57;6.15;;;3.33;;
84709;SDS011;75589;42.648;23.274;2024-03-07T03:57:27;4.28;;;2.65;;
84709;SDS011;75589;42.648;23.274;2024-03-07T03:59:54;6.97;;;3.60;;
84709;SDS011;75589;42.648;23.274;2024-03-07T04:02:21;4.65;;;2.03;;
84709;SDS011;75589;42.648;23.274;2024-03-07T04:04:47;4.55;;;2.40;;
84709;SDS011;75589;42.648;23.274;2024-03-07T04:07:13;3.35;;;2.05;;
84709;SDS011;75589;42.648;23.274;2024-03-07T04:09:41;4.78;;;2.10;;
84709;SDS011;75589;42.648;23.274;2024-03-07T04:12:07;4.40;;;2.63;;
84709;SDS011;75589;42.648;23.274;2024-03-07T04:14:36;4.53;;;2.28;;
84709;SDS011;75589;42.648;23.274;2024-03-07T04:17:02;3.42;;;2.05;;
84709;SDS011;75589;42.648;23.274;2024-03-07T04:19:27;3.00;;;1.90;;
84709;SDS011;75589;42.648;23.274;2024-03-07T04:21:56;3.13;;;2.63;;
84709;SDS011;75589;42.648;23.274;2024-03-07T04:24:21;4.22;;;2.30;;
84709;SDS011;75589;42.648;23.274;2024-03-07T04:26:47;10.45;;;3.05;;
84709;SDS011;75589;42.648;23.274;2024-03-07T04:29:12;7.90;;;3.58;;
84709;SDS011;75589;42.648;23.274;2024-03-07T04:31:38;9.18;;;3.75;;
84709;SDS011;75589;42.648;23.274;2024-03-07T04:34:03;12.13;;;4.75;;
84709;SDS011;75589;42.648;23.274;2024-03-07T04:36:29;10.77;;;5.38;;
84709;SDS011;75589;42.648;23.274;2024-03-07T04:38:55;10.88;;;5.35;;
84709;SDS011;75589;42.648;23.274;2024-03-07T04:41:20;9.65;;;4.55;;
84709;SDS011;75589;42.648;23.274;2024-03-07T04:43:46;13.02;;;5.70;;
84709;SDS011;75589;42.648;23.274;2024-03-07T04:46:11;26.40;;;5.05;;
84709;SDS011;75589;42.648;23.274;2024-03-07T04:48:37;7.63;;;3.65;;
84709;SDS011;75589;42.648;23.274;2024-03-07T04:51:03;8.77;;;4.60;;
84709;SDS011;75589;42.648;23.274;2024-03-07T04:53:28;7.72;;;4.13;;
84709;SDS011;75589;42.648;23.274;2024-03-07T04:55:54;8.30;;;4.32;;
84709;SDS011;75589;42.648;23.274;2024-03-07T04:58:21;5.57;;;3.13;;
84709;SDS011;75589;42.648;23.274;2024-03-07T05:00:47;8.95;;;4.95;;
84709;SDS011;75589;42.648;23.274;2024-03-07T05:03:12;8.85;;;5.32;;
84709;SDS011;75589;42.648;23.274;2024-03-07T05:05:56;10.73;;;5.13;;
84709;SDS011;75589;42.648;23.274;2024-03-07T05:08:22;9.93;;;4.80;;
84709;SDS011;75589;42.648;23.274;2024-03-07T05:10:48;8.73;;;5.47;;
84709;SDS011;75589;42.648;23.274;2024-03-07T05:13:13;8.73;;;4.07;;
84709;SDS011;75589;42.648;23.274;2024-03-07T05:15:39;8.02;;;4.25;;
84709;SDS011;75589;42.648;23.274;2024-03-07T05:18:04;5.90;;;3.28;;
84709;SDS011;75589;42.648;23.274;2024-03-07T05:20:30;4.35;;;2.63;;
84709;SDS011;75589;42.648;23.274;2024-03-07T05:22:55;3.88;;;2.58;;
84709;SDS011;75589;42.648;23.274;2024-03-07T05:25:21;4.15;;;2.85;;
84709;SDS011;75589;42.648;23.274;2024-03-07T05:27:49;6.03;;;3.03;;
84709;SDS011;75589;42.648;23.274;2024-03-07T05:30:16;3.80;;;1.40;;
84709;SDS011;75589;42.648;23.274;2024-03-07T05:32:42;1.00;;;0.70;;
84709;SDS011;75589;42.648;23.274;2024-03-07T05:35:08;2.85;;;1.17;;
84709;SDS011;75589;42.648;23.274;2024-03-07T05:37:34;1.40;;;1.30;;
84709;SDS011;75589;42.648;23.274;2024-03-07T05:39:59;2.70;;;1.05;;
84709;SDS011;75589;42.648;23.274;2024-03-07T05:42:27;4.30;;;1.20;;
84709;SDS011;75589;42.648;23.274;2024-03-07T05:44:54;2.75;;;1.88;;
84709;SDS011;75589;42.648;23.274;2024-03-07T05:47:20;1.60;;;1.50;;
84709;SDS011;75589;42.648;23.274;2024-03-07T05:49:46;2.13;;;1.63;;
84709;SDS011;75589;42.648;23.274;2024-03-07T05:52:12;2.42;;;1.15;;
84709;SDS011;75589;42.648;23.274;2024-03-07T05:54:37;1.83;;;1.13;;
84709;SDS011;75589;42.648;23.274;2024-03-07T05:57:03;2.78;;;1.30;;
84709;SDS011;75589;42.648;23.274;2024-03-07T05:59:30;4.68;;;1.20;;
84709;SDS011;75589;42.648;23.274;2024-03-07T06:01:57;1.88;;;1.17;;
84709;SDS011;75589;42.648;23.274;2024-03-07T06:04:23;0.95;;;0.80;;
84709;SDS011;75589;42.648;23.274;2024-03-07T06:06:48;1.67;;;0.85;;
84709;SDS011;75589;42.648;23.274;2024-03-07T06:09:14;1.98;;;1.33;;
84709;SDS011;75589;42.648;23.274;2024-03-07T06:11:46;3.25;;;1.50;;
84709;SDS011;75589;42.648;23.274;2024-03-07T06:14:12;1.70;;;1.05;;
84709;SDS011;75589;42.648;23.274;2024-03-07T06:16:39;0.77;;;0.50;;
84709;SDS011;75589;42.648;23.274;2024-03-07T06:19:05;1.40;;;1.27;;
84709;SDS011;75589;42.648;23.274;2024-03-07T06:21:35;3.10;;;1.38;;
84709;SDS011;75589;42.648;23.274;2024-03-07T06:24:02;3.58;;;1.40;;
84709;SDS011;75589;42.648;23.274;2024-03-07T06:26:31;2.67;;;1.25;;
84709;SDS011;75589;42.648;23.274;2024-03-07T06:29:10;3.63;;;1.75;;
84709;SDS011;75589;42.648;23.274;2024-03-07T06:31:39;1.70;;;1.30;;
84709;SDS011;75589;42.648;23.274;2024-03-07T06:34:08;2.08;;;1.33;;
84709;SDS011;75589;42.648;23.274;2024-03-07T06:36:34;1.45;;;0.93;;
84709;SDS011;75589;42.648;23.274;2024-03-07T06:39:00;2.05;;;1.30;;
84709;SDS011;75589;42.648;23.274;2024-03-07T06:41:26;1.48;;;1.13;;
84709;SDS011;75589;42.648;23.274;2024-03-07T06:43:51;3.17;;;1.88;;
84709;SDS011;75589;42.648;23.274;2024-03-07T06:46:20;3.80;;;1.42;;
84709;SDS011;75589;42.648;23.274;2024-03-07T06:48:45;4.80;;;1.60;;
84709;SDS011;75589;42.648;23.274;2024-03-07T06:51:11;9.35;;;1.63;;
84709;SDS011;75589;42.648;23.274;2024-03-07T06:53:37;3.88;;;1.63;;
84709;SDS011;75589;42.648;23.274;2024-03-07T06:56:02;3.30;;;1.30;;
84709;SDS011;75589;42.648;23.274;2024-03-07T06:58:28;2.38;;;1.30;;
84709;SDS011;75589;42.648;23.274;2024-03-07T07:00:54;2.72;;;1.73;;
84709;SDS011;75589;42.648;23.274;2024-03-07T07:03:22;4.10;;;1.73;;
84709;SDS011;75589;42.648;23.274;2024-03-07T07:05:49;4.72;;;2.45;;
84709;SDS011;75589;42.648;23.274;2024-03-07T07:08:15;3.40;;;2.42;;
84709;SDS011;75589;42.648;23.274;2024-03-07T07:10:41;4.18;;;3.10;;
84709;SDS011;75589;42.648;23.274;2024-03-07T07:15:33;4.10;;;2.97;;
84709;SDS011;75589;42.648;23.274;2024-03-07T07:17:59;4.63;;;3.13;;
84709;SDS011;75589;42.648;23.274;2024-03-07T07:20:27;4.45;;;2.45;;
84709;SDS011;75589;42.648;23.274;2024-03-07T07:22:53;2.50;;;2.05;;
84709;SDS011;75589;42.648;23.274;2024-03-07T07:25:19;2.10;;;1.30;;
84709;SDS011;75589;42.648;23.274;2024-03-07T07:32:39;2.42;;;2.17;;
84709;SDS011;75589;42.648;23.274;2024-03-07T07:45:15;4.25;;;2.33;;
84709;SDS011;75589;42.648;23.274;2024-03-07T07:57:14;4.25;;;3.00;;
84709;SDS011;75589;42.648;23.274;2024-03-07T07:59:40;3.45;;;3.15;;
84709;SDS011;75589;42.648;23.274;2024-03-07T08:02:05;4.57;;;3.00;;
84709;SDS011;75589;42.648;23.274;2024-03-07T08:07:54;5.82;;;2.95;;
84709;SDS011;75589;42.648;23.274;2024-03-07T08:10:30;3.83;;;2.65;;
84709;SDS011;75589;42.648;23.274;2024-03-07T08:16:26;4.03;;;3.17;;
84709;SDS011;75589;42.648;23.274;2024-03-07T08:22:13;7.20;;;4.78;;
84709;SDS011;75589;42.648;23.274;2024-03-07T08:31:02;11.68;;;4.40;;
84709;SDS011;75589;42.648;23.274;2024-03-07T08:40:17;9.80;;;5.30;;
84709;SDS011;75589;42.648;23.274;2024-03-07T08:42:55;8.55;;;5.18;;
84709;SDS011;75589;42.648;23.274;2024-03-07T08:45:22;7.50;;;4.82;;
84709;SDS011;75589;42.648;23.274;2024-03-07T08:50:39;8.98;;;5.20;;
84709;SDS011;75589;42.648;23.274;2024-03-07T08:53:06;5.68;;;3.95;;
84709;SDS011;75589;42.648;23.274;2024-03-07T08:55:32;5.97;;;4.20;;
84709;SDS011;75589;42.648;23.274;2024-03-07T08:57:57;6.07;;;3.85;;
84709;SDS011;75589;42.648;23.274;2024-03-07T09:00:23;5.85;;;4.47;;
84709;SDS011;75589;42.648;23.274;2024-03-07T09:02:51;11.52;;;5.38;;
84709;SDS011;75589;42.648;23.274;2024-03-07T09:05:23;6.72;;;4.45;;
84709;SDS011;75589;42.648;23.274;2024-03-07T09:07:49;9.15;;;4.85;;
84709;SDS011;75589;42.648;23.274;2024-03-07T09:10:16;8.45;;;4.25;;
84709;SDS011;75589;42.648;23.274;2024-03-07T09:12:44;10.80;;;5.40;;
84709;SDS011;75589;42.648;23.274;2024-03-07T09:15:10;9.45;;;5.15;;
84709;SDS011;75589;42.648;23.274;2024-03-07T09:17:37;8.80;;;6.00;;
84709;SDS011;75589;42.648;23.274;2024-03-07T09:22:51;5.28;;;3.78;;
84709;SDS011;75589;42.648;23.274;2024-03-07T09:25:19;6.13;;;4.75;;
84709;SDS011;75589;42.648;23.274;2024-03-07T09:27:44;8.23;;;4.30;;
84709;SDS011;75589;42.648;23.274;2024-03-07T09:30:10;6.28;;;4.15;;
84709;SDS011;75589;42.648;23.274;2024-03-07T09:32:47;6.50;;;3.50;;
84709;SDS011;75589;42.648;23.274;2024-03-07T09:35:12;9.20;;;4.05;;
84709;SDS011;75589;42.648;23.274;2024-03-07T09:37:41;13.80;;;5.70;;
84709;SDS011;75589;42.648;23.274;2024-03-07T09:40:08;8.02;;;5.15;;
84709;SDS011;75589;42.648;23.274;2024-03-07T09:42:41;8.15;;;5.32;;
84709;SDS011;75589;42.648;23.274;2024-03-07T09:45:22;7.15;;;4.65;;
84709;SDS011;75589;42.648;23.274;2024-03-07T09:47:52;6.47;;;5.18;;
84709;SDS011;75589;42.648;23.274;2024-03-07T09:50:19;7.55;;;5.00;;
84709;SDS011;75589;42.648;23.274;2024-03-07T09:52:48;9.32;;;5.10;;
84709;SDS011;75589;42.648;23.274;2024-03-07T09:57:48;7.25;;;5.22;;
84709;SDS011;75589;42.648;23.274;2024-03-07T10:00:17;8.13;;;5.93;;
84709;SDS011;75589;42.648;23.274;2024-03-07T10:05:31;6.10;;;4.47;;
84709;SDS011;75589;42.648;23.274;2024-03-07T10:07:57;6.13;;;4.65;;
84709;SDS011;75589;42.648;23.274;2024-03-07T10:10:23;12.15;;;5.25;;
84709;SDS011;75589;42.648;23.274;2024-03-07T10:12:49;6.25;;;4.07;;
84709;SDS011;75589;42.648;23.274;2024-03-07T10:15:18;7.97;;;5.22;;
84709;SDS011;75589;42.648;23.274;2024-03-07T10:17:44;7.00;;;5.20;;
84709;SDS011;75589;42.648;23.274;2024-03-07T10:22:39;6.72;;;4.40;;
84709;SDS011;75589;42.648;23.274;2024-03-07T10:25:06;5.97;;;4.35;;
84709;SDS011;75589;42.648;23.274;2024-03-07T10:27:33;6.25;;;4.30;;
84709;SDS011;75589;42.648;23.274;2024-03-07T10:30:02;6.95;;;5.05;;
84709;SDS011;75589;42.648;23.274;2024-03-07T10:32:28;7.70;;;4.40;;
84709;SDS011;75589;42.648;23.274;2024-03-07T10:34:55;6.03;;;5.05;;
84709;SDS011;75589;42.648;23.274;2024-03-07T10:37:20;6.00;;;4.35;;
84709;SDS011;75589;42.648;23.274;2024-03-07T10:39:46;9.05;;;4.90;;
84709;SDS011;75589;42.648;23.274;2024-03-07T10:42:14;8.38;;;5.93;;
84709;SDS011;75589;42.648;23.274;2024-03-07T10:44:44;8.75;;;5.65;;
84709;SDS011;75589;42.648;23.274;2024-03-07T10:47:19;9.32;;;5.97;;
84709;SDS011;75589;42.648;23.274;2024-03-07T10:52:32;8.38;;;5.78;;
84709;SDS011;75589;42.648;23.274;2024-03-07T10:55:15;9.55;;;4.72;;
84709;SDS011;75589;42.648;23.274;2024-03-07T10:57:52;7.65;;;5.35;;
84709;SDS011;75589;42.648;23.274;2024-03-07T11:00:27;10.85;;;6.10;;
84709;SDS011;75589;42.648;23.274;2024-03-07T11:03:00;7.70;;;5.80;;
84709;SDS011;75589;42.648;23.274;2024-03-07T11:05:27;9.35;;;6.18;;
84709;SDS011;75589;42.648;23.274;2024-03-07T11:08:00;10.65;;;5.75;;
84709;SDS011;75589;42.648;23.274;2024-03-07T11:10:30;10.13;;;5.53;;
84709;SDS011;75589;42.648;23.274;2024-03-07T11:12:56;11.57;;;5.70;;
84709;SDS011;75589;42.648;23.274;2024-03-07T11:15:23;6.50;;;5.57;;
84709;SDS011;75589;42.648;23.274;2024-03-07T11:17:51;8.23;;;5.53;;
84709;SDS011;75589;42.648;23.274;2024-03-07T11:20:19;6.05;;;4.78;;
84709;SDS011;75589;42.648;23.274;2024-03-07T11:22:49;10.63;;;5.20;;
84709;SDS011;75589;42.648;23.274;2024-03-07T11:25:18;7.03;;;5.00;;
84709;SDS011;75589;42.648;23.274;2024-03-07T11:27:53;6.32;;;4.28;;
84709;SDS011;75589;42.648;23.274;2024-03-07T11:30:20;8.02;;;3.42;;
84709;SDS011;75589;42.648;23.274;2024-03-07T11:32:47;3.67;;;2.80;;
84709;SDS011;75589;42.648;23.274;2024-03-07T11:35:15;7.75;;;2.97;;
84709;SDS011;75589;42.648;23.274;2024-03-07T11:37:41;6.70;;;3.03;;
84709;SDS011;75589;42.648;23.274;2024-03-07T11:42:50;4.43;;;2.85;;
84709;SDS011;75589;42.648;23.274;2024-03-07T11:45:18;6.28;;;2.55;;
84709;SDS011;75589;42.648;23.274;2024-03-07T11:47:53;3.67;;;2.13;;
84709;SDS011;75589;42.648;23.274;2024-03-07T11:50:29;5.13;;;2.47;;
84709;SDS011;75589;42.648;23.274;2024-03-07T11:53:00;3.33;;;2.25;;
84709;SDS011;75589;42.648;23.274;2024-03-07T11:55:26;5.45;;;2.95;;
84709;SDS011;75589;42.648;23.274;2024-03-07T11:57:53;5.80;;;1.92;;
84709;SDS011;75589;42.648;23.274;2024-03-07T12:00:19;3.15;;;2.03;;
84709;SDS011;75589;42.648;23.274;2024-03-07T12:02:45;3.80;;;2.45;;
84709;SDS011;75589;42.648;23.274;2024-03-07T12:05:13;4.32;;;2.25;;
84709;SDS011;75589;42.648;23.274;2024-03-07T12:07:43;2.80;;;2.53;;
84709;SDS011;75589;42.648;23.274;2024-03-07T12:10:09;2.22;;;1.90;;
84709;SDS011;75589;42.648;23.274;2024-03-07T12:12:35;6.88;;;3.35;;
84709;SDS011;75589;42.648;23.274;2024-03-07T12:15:04;5.60;;;2.83;;
84709;SDS011;75589;42.648;23.274;2024-03-07T12:17:41;7.10;;;2.60;;
84709;SDS011;75589;42.648;23.274;2024-03-07T12:20:08;5.47;;;3.67;;
84709;SDS011;75589;42.648;23.274;2024-03-07T12:22:50;7.07;;;3.17;;
84709;SDS011;75589;42.648;23.274;2024-03-07T12:25:18;8.38;;;4.47;;
84709;SDS011;75589;42.648;23.274;2024-03-07T12:27:47;3.35;;;2.85;;
84709;SDS011;75589;42.648;23.274;2024-03-07T12:30:30;7.70;;;2.53;;
84709;SDS011;75589;42.648;23.274;2024-03-07T12:33:00;4.05;;;3.05;;
84709;SDS011;75589;42.648;23.274;2024-03-07T12:35:29;8.30;;;3.08;;
84709;SDS011;75589;42.648;23.274;2024-03-07T12:37:56;10.25;;;2.15;;
84709;SDS011;75589;42.648;23.274;2024-03-07T12:40:23;4.35;;;2.28;;
84709;SDS011;75589;42.648;23.274;2024-03-07T12:42:51;5.45;;;2.95;;
84709;SDS011;75589;42.648;23.274;2024-03-07T12:45:19;5.68;;;2.40;;
84709;SDS011;75589;42.648;23.274;2024-03-07T12:47:48;5.75;;;2.40;;
84709;SDS011;75589;42.648;23.274;2024-03-07T12:50:19;7.97;;;2.90;;
84709;SDS011;75589;42.648;23.274;2024-03-07T12:52:46;2.97;;;2.33;;
84709;SDS011;75589;42.648;23.274;2024-03-07T12:55:15;7.38;;;2.28;;
84709;SDS011;75589;42.648;23.274;2024-03-07T12:57:43;4.40;;;1.90;;
84709;SDS011;75589;42.648;23.274;2024-03-07T13:00:12;5.32;;;2.33;;
84709;SDS011;75589;42.648;23.274;2024-03-07T13:05:11;3.00;;;2.75;;
84709;SDS011;75589;42.648;23.274;2024-03-07T13:07:51;2.47;;;1.75;;
84709;SDS011;75589;42.648;23.274;2024-03-07T13:10:17;4.50;;;2.38;;
84709;SDS011;75589;42.648;23.274;2024-03-07T13:12:48;2.45;;;2.20;;
84709;SDS011;75589;42.648;23.274;2024-03-07T13:15:16;6.53;;;2.83;;
84709;SDS011;75589;42.648;23.274;2024-03-07T13:17:42;7.72;;;3.72;;
84709;SDS011;75589;42.648;23.274;2024-03-07T13:20:09;5.63;;;3.13;;
84709;SDS011;75589;42.648;23.274;2024-03-07T13:22:42;7.70;;;2.85;;
84709;SDS011;75589;42.648;23.274;2024-03-07T13:25:09;1.15;;;0.90;;
84709;SDS011;75589;42.648;23.274;2024-03-07T13:27:43;1.77;;;0.85;;
84709;SDS011;75589;42.648;23.274;2024-03-07T13:30:16;1.33;;;0.88;;
84709;SDS011;75589;42.648;23.274;2024-03-07T13:32:47;5.97;;;0.90;;
84709;SDS011;75589;42.648;23.274;2024-03-07T13:35:14;0.82;;;0.73;;
84709;SDS011;75589;42.648;23.274;2024-03-07T13:37:40;1.08;;;0.88;;
84709;SDS011;75589;42.648;23.274;2024-03-07T13:40:06;1.95;;;1.63;;
84709;SDS011;75589;42.648;23.274;2024-03-07T13:42:47;2.00;;;0.63;;
84709;SDS011;75589;42.648;23.274;2024-03-07T13:45:32;2.00;;;0.93;;
84709;SDS011;75589;42.648;23.274;2024-03-07T13:48:08;2.72;;;1.85;;
84709;SDS011;75589;42.648;23.274;2024-03-07T13:50:38;3.13;;;1.25;;
84709;SDS011;75589;42.648;23.274;2024-03-07T13:53:06;1.77;;;1.55;;
84709;SDS011;75589;42.648;23.274;2024-03-07T13:55:32;2.25;;;1.20;;
84709;SDS011;75589;42.648;23.274;2024-03-07T13:58:05;1.55;;;1.35;;
84709;SDS011;75589;42.648;23.274;2024-03-07T14:00:59;8.27;;;3.20;;
84709;SDS011;75589;42.648;23.274;2024-03-07T14:16:05;1.85;;;1.60;;
84709;SDS011;75589;42.648;23.274;2024-03-07T14:28:11;0.10;;;0.10;;
84709;SDS011;75589;42.648;23.274;2024-03-07T14:30:57;0.30;;;0.30;;
84709;SDS011;75589;42.648;23.274;2024-03-07T14:33:27;11.82;;;5.25;;
84709;SDS011;75589;42.648;23.274;2024-03-07T14:36:03;0.05;;;0.05;;
84709;SDS011;75589;42.648;23.274;2024-03-07T14:41:20;0.17;;;0.17;;
84709;SDS011;75589;42.648;23.274;2024-03-07T14:43:50;0.35;;;0.35;;
84709;SDS011;75589;42.648;23.274;2024-03-07T14:46:16;0.20;;;0.20;;
84709;SDS011;75589;42.648;23.274;2024-03-07T14:48:42;0.00;;;0.00;;
84709;SDS011;75589;42.648;23.274;2024-03-07T14:51:09;3.95;;;2.78;;
84709;SDS011;75589;42.648;23.274;2024-03-07T14:53:39;3.60;;;2.28;;
84709;SDS011;75589;42.648;23.274;2024-03-07T14:56:06;12.35;;;6.82;;
84709;SDS011;75589;42.648;23.274;2024-03-07T14:58:32;11.02;;;6.40;;
84709;SDS011;75589;42.648;23.274;2024-03-07T15:00:57;8.00;;;5.18;;
84709;SDS011;75589;42.648;23.274;2024-03-07T15:03:23;8.00;;;4.55;;
84709;SDS011;75589;42.648;23.274;2024-03-07T15:05:51;5.38;;;3.67;;
84709;SDS011;75589;42.648;23.274;2024-03-07T15:08:17;8.73;;;3.50;;
84709;SDS011;75589;42.648;23.274;2024-03-07T15:10:48;6.03;;;3.50;;
84709;SDS011;75589;42.648;23.274;2024-03-07T15:13:22;7.97;;;3.65;;
84709;SDS011;75589;42.648;23.274;2024-03-07T15:15:48;6.65;;;4.93;;
84709;SDS011;75589;42.648;23.274;2024-03-07T15:18:13;6.50;;;4.22;;
84709;SDS011;75589;42.648;23.274;2024-03-07T15:20:39;8.30;;;5.32;;
84709;SDS011;75589;42.648;23.274;2024-03-07T15:23:06;10.00;;;5.57;;
84709;SDS011;75589;42.648;23.274;2024-03-07T15:25:32;9.20;;;6.03;;
84709;SDS011;75589;42.648;23.274;2024-03-07T15:30:24;9.77;;;4.43;;
84709;SDS011;75589;42.648;23.274;2024-03-07T15:32:57;10.88;;;5.70;;
84709;SDS011;75589;42.648;23.274;2024-03-07T15:35:23;10.55;;;4.97;;
84709;SDS011;75589;42.648;23.274;2024-03-07T15:37:51;8.02;;;5.07;;
84709;SDS011;75589;42.648;23.274;2024-03-07T15:40:19;10.88;;;5.70;;
84709;SDS011;75589;42.648;23.274;2024-03-07T15:42:49;10.32;;;5.13;;
84709;SDS011;75589;42.648;23.274;2024-03-07T15:45:19;9.68;;;4.68;;
84709;SDS011;75589;42.648;23.274;2024-03-07T15:47:50;11.85;;;5.65;;
84709;SDS011;75589;42.648;23.274;2024-03-07T15:50:18;11.40;;;4.95;;
84709;SDS011;75589;42.648;23.274;2024-03-07T15:52:44;10.18;;;4.97;;
84709;SDS011;75589;42.648;23.274;2024-03-07T15:55:12;9.65;;;5.38;;
84709;SDS011;75589;42.648;23.274;2024-03-07T15:57:47;14.23;;;6.85;;
84709;SDS011;75589;42.648;23.274;2024-03-07T16:00:18;14.00;;;5.85;;
84709;SDS011;75589;42.648;23.274;2024-03-07T16:02:49;11.02;;;6.47;;
84709;SDS011;75589;42.648;23.274;2024-03-07T16:05:38;12.65;;;6.53;;
84709;SDS011;75589;42.648;23.274;2024-03-07T16:08:08;14.88;;;7.03;;
84709;SDS011;75589;42.648;23.274;2024-03-07T16:10:36;12.77;;;7.13;;
84709;SDS011;75589;42.648;23.274;2024-03-07T16:13:05;10.18;;;5.40;;
84709;SDS011;75589;42.648;23.274;2024-03-07T16:15:33;13.15;;;6.10;;
84709;SDS011;75589;42.648;23.274;2024-03-07T16:18:02;11.93;;;5.50;;
84709;SDS011;75589;42.648;23.274;2024-03-07T16:22:54;11.23;;;5.70;;
84709;SDS011;75589;42.648;23.274;2024-03-07T16:25:20;13.05;;;5.80;;
84709;SDS011;75589;42.648;23.274;2024-03-07T16:27:47;10.35;;;5.65;;